Time;durP1;ratioP1;P1;durP2;ratioP2;P2;SDS_P1;SDS_P2;PMS_P1;PMS_P2;Temp;Humidity;BMP_temperature;BMP_pressure;BME280_temperature;BME280_humidity;BME280_pressure;Samples;Min_cycle;Max_cycle;Signal;HPM_P1;HPM_P2
2021/12/31 00:02:09;;;;;;;6.63;2.85;;;;;;;;;;5026589;28;20081;-59
2021/12/31 00:04:37;;;;;;;12.70;2.78;;;;;;;;;;5028762;28;20050;-58
2021/12/31 00:07:03;;;;;;;10.63;2.58;;;;;;;;;;5025399;28;20175;-60
2021/12/31 00:09:30;;;;;;;5.88;2.45;;;;;;;;;;5029598;28;20095;-59
2021/12/31 00:11:57;;;;;;;11.60;2.80;;;;;;;;;;5035276;28;20065;-58
2021/12/31 00:14:23;;;;;;;9.63;2.92;;;;;;;;;;5060376;28;20033;-59
2021/12/31 00:16:50;;;;;;;6.65;2.28;;;;;;;;;;5026358;28;20081;-61
2021/12/31 00:19:18;;;;;;;5.15;2.20;;;;;;;;;;5050588;28;20044;-59
2021/12/31 00:21:48;;;;;;;6.03;2.30;;;;;;;;;;5036221;28;20065;-61
2021/12/31 00:24:14;;;;;;;11.02;2.10;;;;;;;;;;5030608;28;20049;-60
2021/12/31 00:26:41;;;;;;;9.77;2.55;;;;;;;;;;5025784;28;20053;-63
2021/12/31 00:29:10;;;;;;;9.18;2.47;;;;;;;;;;5030703;28;20064;-60
2021/12/31 00:31:36;;;;;;;8.15;2.22;;;;;;;;;;5024157;28;20077;-59
2021/12/31 00:34:03;;;;;;;7.63;2.10;;;;;;;;;;5015940;28;20141;-62
2021/12/31 00:36:38;;;;;;;11.38;3.47;;;;;;;;;;5028434;28;20132;-60
2021/12/31 00:39:06;;;;;;;7.47;2.50;;;;;;;;;;5048382;28;20065;-59
2021/12/31 00:41:32;;;;;;;10.02;2.05;;;;;;;;;;5045538;28;20542;-59
2021/12/31 00:43:59;;;;;;;6.65;2.15;;;;;;;;;;5046869;28;20060;-59
2021/12/31 00:46:25;;;;;;;11.25;2.00;;;;;;;;;;5047372;28;20078;-59
2021/12/31 00:48:52;;;;;;;5.50;2.05;;;;;;;;;;5043075;28;20391;-59
2021/12/31 00:51:19;;;;;;;9.20;2.05;;;;;;;;;;5047181;28;20053;-60
2021/12/31 00:53:45;;;;;;;9.13;1.77;;;;;;;;;;5043837;28;20068;-60
2021/12/31 00:56:13;;;;;;;10.68;2.42;;;;;;;;;;5047410;28;20061;-61
2021/12/31 00:58:40;;;;;;;5.70;2.13;;;;;;;;;;5040261;28;20057;-59
2021/12/31 01:01:09;;;;;;;7.78;2.38;;;;;;;;;;5025920;28;20073;-60
2021/12/31 01:03:35;;;;;;;5.97;1.70;;;;;;;;;;5034972;28;20381;-59
2021/12/31 01:06:01;;;;;;;9.52;1.65;;;;;;;;;;5047197;28;20045;-59
2021/12/31 01:08:28;;;;;;;7.38;2.03;;;;;;;;;;5043111;28;20148;-59
2021/12/31 01:10:56;;;;;;;4.95;1.95;;;;;;;;;;5031115;28;20057;-60
2021/12/31 01:13:31;;;;;;;4.40;1.67;;;;;;;;;;5043434;28;20076;-59
2021/12/31 01:16:00;;;;;;;6.85;2.20;;;;;;;;;;5046967;28;20524;-59
2021/12/31 01:19:44;;;;;;;;;;;;;;;;;;5039704;28;20056;-60
2021/12/31 01:21:14;;;;;;;6.82;1.77;;;;;;;;;;5027173;28;19958;-59
2021/12/31 01:23:41;;;;;;;3.35;1.42;;;;;;;;;;5013071;28;20547;-58
2021/12/31 01:26:07;;;;;;;6.88;2.05;;;;;;;;;;5039858;28;20493;-59
2021/12/31 01:28:36;;;;;;;6.05;1.52;;;;;;;;;;5040077;28;20061;-59
2021/12/31 01:31:02;;;;;;;;;;;;;;;;;;5044668;28;20060;-59
2021/12/31 01:33:29;;;;;;;7.07;1.83;;;;;;;;;;5044921;28;19975;-60
2021/12/31 01:35:55;;;;;;;7.25;1.85;;;;;;;;;;5025092;28;20056;-59
2021/12/31 01:38:22;;;;;;;11.82;2.17;;;;;;;;;;5027099;28;20053;-59
2021/12/31 01:40:49;;;;;;;10.45;1.88;;;;;;;;;;5035954;28;20084;-61
2021/12/31 01:43:16;;;;;;;4.50;1.55;;;;;;;;;;5042999;28;20161;-60
2021/12/31 01:45:47;;;;;;;4.53;1.60;;;;;;;;;;5055142;28;20263;-59
2021/12/31 01:48:24;;;;;;;9.27;1.88;;;;;;;;;;5047571;28;20135;-59
2021/12/31 01:50:51;;;;;;;5.75;2.13;;;;;;;;;;5028104;28;20049;-59
2021/12/31 01:53:17;;;;;;;4.30;1.58;;;;;;;;;;5027644;28;20049;-59
2021/12/31 01:55:44;;;;;;;5.20;1.63;;;;;;;;;;5035223;28;20049;-58
2021/12/31 01:58:10;;;;;;;6.30;1.52;;;;;;;;;;5047572;28;20065;-62
2021/12/31 02:00:44;;;;;;;2.95;1.40;;;;;;;;;;5043518;28;20056;-58
2021/12/31 02:03:12;;;;;;;6.07;1.50;;;;;;;;;;5047420;28;20135;-59
2021/12/31 02:05:39;;;;;;;4.28;1.48;;;;;;;;;;5044521;28;20060;-61
2021/12/31 02:08:06;;;;;;;3.75;1.40;;;;;;;;;;5049625;28;20144;-60
2021/12/31 02:10:38;;;;;;;7.13;1.58;;;;;;;;;;5045703;28;20072;-61
2021/12/31 02:13:06;;;;;;;6.13;1.50;;;;;;;;;;5048376;28;20071;-60
2021/12/31 02:15:33;;;;;;;9.52;1.70;;;;;;;;;;5042631;28;20057;-61
2021/12/31 02:18:03;;;;;;;4.25;1.30;;;;;;;;;;5046119;28;20052;-59
2021/12/31 02:20:40;;;;;;;3.55;1.50;;;;;;;;;;5041828;28;20080;-62
2021/12/31 02:23:08;;;;;;;3.50;1.40;;;;;;;;;;5046328;28;20060;-61
2021/12/31 02:25:36;;;;;;;6.75;1.52;;;;;;;;;;5043978;28;20053;-59
2021/12/31 02:28:02;;;;;;;5.40;1.33;;;;;;;;;;5026217;28;20060;-61
2021/12/31 02:30:29;;;;;;;5.00;1.60;;;;;;;;;;5022616;28;20156;-59
2021/12/31 02:32:56;;;;;;;5.20;1.55;;;;;;;;;;5021895;28;20057;-59
2021/12/31 02:35:22;;;;;;;5.07;1.33;;;;;;;;;;5026052;28;20064;-58
2021/12/31 02:37:50;;;;;;;11.00;1.48;;;;;;;;;;5021860;28;20118;-59
2021/12/31 02:40:18;;;;;;;8.30;1.80;;;;;;;;;;5025998;28;20150;-61
2021/12/31 02:42:45;;;;;;;8.30;2.15;;;;;;;;;;5022528;28;20399;-58
2021/12/31 02:45:12;;;;;;;3.85;1.50;;;;;;;;;;5026036;28;20053;-60
2021/12/31 02:47:44;;;;;;;5.88;1.60;;;;;;;;;;5011890;28;20069;-62
2021/12/31 02:50:18;;;;;;;4.32;1.45;;;;;;;;;;5006118;28;20504;-59
2021/12/31 02:52:45;;;;;;;5.47;1.50;;;;;;;;;;5002109;28;20058;-58
2021/12/31 02:55:13;;;;;;;4.88;1.67;;;;;;;;;;5005233;28;20058;-59
2021/12/31 02:57:40;;;;;;;8.38;1.40;;;;;;;;;;5002067;28;20113;-59
2021/12/31 03:00:07;;;;;;;7.13;1.40;;;;;;;;;;5006119;28;20188;-60
2021/12/31 03:02:36;;;;;;;6.28;1.27;;;;;;;;;;5002544;28;20495;-59
2021/12/31 03:05:03;;;;;;;6.13;1.50;;;;;;;;;;5005694;28;20085;-59
2021/12/31 03:07:30;;;;;;;5.95;1.45;;;;;;;;;;5002529;28;20058;-60
2021/12/31 03:09:59;;;;;;;5.40;1.80;;;;;;;;;;5001300;28;20085;-59
2021/12/31 03:12:25;;;;;;;;;;;;;;;;;;5004187;28;20038;-59
2021/12/31 03:14:54;;;;;;;5.00;1.30;;;;;;;;;;5005292;28;19925;-59
2021/12/31 03:17:20;;;;;;;;;;;;;;;;;;5005964;28;20064;-58
2021/12/31 03:19:47;;;;;;;4.63;1.25;;;;;;;;;;5002119;28;19964;-59
2021/12/31 03:22:14;;;;;;;5.82;1.70;;;;;;;;;;5005809;28;20054;-58
2021/12/31 03:24:41;;;;;;;8.00;1.83;;;;;;;;;;5002300;28;20140;-59
2021/12/31 03:27:07;;;;;;;2.28;1.02;;;;;;;;;;5005947;28;20062;-59
2021/12/31 03:29:34;;;;;;;3.00;1.17;;;;;;;;;;5002280;28;20077;-59
2021/12/31 03:32:02;;;;;;;6.05;1.50;;;;;;;;;;5005893;28;20116;-58
2021/12/31 03:34:29;;;;;;;3.70;1.40;;;;;;;;;;5002134;28;20046;-59
2021/12/31 03:36:55;;;;;;;3.83;1.20;;;;;;;;;;5006023;28;20049;-59
2021/12/31 03:39:22;;;;;;;6.80;1.77;;;;;;;;;;5012953;28;20060;-59
2021/12/31 03:41:48;;;;;;;7.38;2.25;;;;;;;;;;5046852;28;20103;-59
2021/12/31 03:44:15;;;;;;;7.43;1.48;;;;;;;;;;5044588;28;20134;-58
2021/12/31 03:46:41;;;;;;;5.13;1.30;;;;;;;;;;5047975;28;20077;-61
2021/12/31 03:49:09;;;;;;;6.32;1.48;;;;;;;;;;5042502;28;20060;-59
2021/12/31 03:51:36;;;;;;;8.40;1.65;;;;;;;;;;5045514;28;20076;-61
2021/12/31 03:54:02;;;;;;;5.20;1.40;;;;;;;;;;5042332;28;20053;-59
2021/12/31 03:56:31;;;;;;;5.68;1.33;;;;;;;;;;5044050;28;20147;-59
2021/12/31 03:58:59;;;;;;;4.03;1.38;;;;;;;;;;5043656;28;20052;-58
2021/12/31 04:01:26;;;;;;;3.35;1.50;;;;;;;;;;5041353;28;20043;-59
2021/12/31 04:03:52;;;;;;;3.88;1.20;;;;;;;;;;5044697;28;20068;-59
2021/12/31 04:06:21;;;;;;;6.30;1.52;;;;;;;;;;5040674;28;20076;-60
2021/12/31 04:08:47;;;;;;;4.93;1.55;;;;;;;;;;5048781;28;20052;-59
2021/12/31 04:11:14;;;;;;;8.65;1.25;;;;;;;;;;5042564;28;20036;-58
2021/12/31 04:13:40;;;;;;;9.43;1.45;;;;;;;;;;5030783;28;20123;-59
2021/12/31 04:16:07;;;;;;;6.00;1.60;;;;;;;;;;5034233;28;20353;-58
2021/12/31 04:18:33;;;;;;;6.97;1.60;;;;;;;;;;5029094;28;20141;-61
2021/12/31 04:21:01;;;;;;;6.00;1.48;;;;;;;;;;5033220;28;20496;-61
2021/12/31 04:23:32;;;;;;;5.10;1.30;;;;;;;;;;5048508;28;20148;-60
2021/12/31 04:25:59;;;;;;;4.10;1.30;;;;;;;;;;5043942;28;20366;-60
2021/12/31 04:28:26;;;;;;;5.03;1.17;;;;;;;;;;5047948;28;20102;-59
2021/12/31 04:30:53;;;;;;;5.60;1.48;;;;;;;;;;5043863;28;20414;-59
2021/12/31 04:33:20;;;;;;;4.32;1.40;;;;;;;;;;5048012;28;20052;-60
2021/12/31 04:35:46;;;;;;;4.38;1.48;;;;;;;;;;5044781;28;20159;-60
2021/12/31 04:38:13;;;;;;;3.83;1.63;;;;;;;;;;5047597;28;20084;-59
2021/12/31 04:40:41;;;;;;;6.10;1.55;;;;;;;;;;5047493;28;20053;-59
2021/12/31 04:43:07;;;;;;;5.45;1.25;;;;;;;;;;5026489;28;20121;-60
2021/12/31 04:45:34;;;;;;;9.48;1.85;;;;;;;;;;5023360;28;20144;-59
2021/12/31 04:48:01;;;;;;;5.72;1.52;;;;;;;;;;5021630;28;20052;-59
2021/12/31 04:50:29;;;;;;;5.47;1.77;;;;;;;;;;5034555;28;20120;-59
2021/12/31 04:52:56;;;;;;;6.13;1.77;;;;;;;;;;5031108;28;20149;-58
2021/12/31 04:55:22;;;;;;;5.32;1.40;;;;;;;;;;5047544;28;20136;-59
2021/12/31 04:57:50;;;;;;;7.20;1.30;;;;;;;;;;5043441;28;20485;-59
2021/12/31 05:00:18;;;;;;;5.93;1.60;;;;;;;;;;5047833;28;20072;-58
2021/12/31 05:02:44;;;;;;;3.60;1.48;;;;;;;;;;5043799;28;20300;-58
2021/12/31 05:05:12;;;;;;;4.75;1.42;;;;;;;;;;5047760;28;20143;-59
2021/12/31 05:07:39;;;;;;;7.18;1.52;;;;;;;;;;5043887;28;20455;-59
2021/12/31 05:10:06;;;;;;;8.13;1.48;;;;;;;;;;5047796;28;20370;-59
2021/12/31 05:12:35;;;;;;;7.63;1.85;;;;;;;;;;5043988;28;20045;-62
2021/12/31 05:15:02;;;;;;;;;;;;;;;;;;5048512;28;20053;-62
2021/12/31 05:17:30;;;;;;;6.43;1.60;;;;;;;;;;5044919;28;20427;-62
2021/12/31 05:19:59;;;;;;;8.00;1.67;;;;;;;;;;5049096;28;20049;-61
2021/12/31 05:22:25;;;;;;;5.65;1.40;;;;;;;;;;5048494;28;20106;-59
2021/12/31 05:24:52;;;;;;;4.57;1.70;;;;;;;;;;5046799;28;20060;-59
2021/12/31 05:27:18;;;;;;;5.57;1.90;;;;;;;;;;5047449;28;20059;-59
2021/12/31 05:29:45;;;;;;;4.40;1.55;;;;;;;;;;5043163;28;20144;-61
2021/12/31 05:32:12;;;;;;;4.43;1.30;;;;;;;;;;5047577;28;20108;-60
2021/12/31 05:34:39;;;;;;;7.07;1.58;;;;;;;;;;5042731;28;20141;-59
2021/12/31 05:37:06;;;;;;;7.57;1.60;;;;;;;;;;5047957;28;20156;-58
2021/12/31 05:39:32;;;;;;;5.60;1.55;;;;;;;;;;5043284;28;20343;-59
2021/12/31 05:41:59;;;;;;;6.10;1.60;;;;;;;;;;5046656;28;20136;-59
2021/12/31 05:44:25;;;;;;;6.22;1.58;;;;;;;;;;5033698;28;20049;-60
2021/12/31 05:46:53;;;;;;;5.10;1.35;;;;;;;;;;5013426;28;20070;-61
2021/12/31 05:49:21;;;;;;;5.18;1.85;;;;;;;;;;5003829;28;20050;-59
2021/12/31 05:51:50;;;;;;;3.53;1.45;;;;;;;;;;5007054;28;20057;-59
2021/12/31 05:54:16;;;;;;;4.95;1.45;;;;;;;;;;5007939;28;20049;-61
2021/12/31 05:56:43;;;;;;;9.82;1.73;;;;;;;;;;5041357;28;20510;-59
2021/12/31 05:59:09;;;;;;;3.35;1.48;;;;;;;;;;5042453;28;20173;-59
2021/12/31 06:01:36;;;;;;;7.28;1.60;;;;;;;;;;5047164;28;20053;-59
2021/12/31 06:04:02;;;;;;;5.55;1.75;;;;;;;;;;5044734;28;20145;-62
2021/12/31 06:06:29;;;;;;;3.30;1.60;;;;;;;;;;5061018;28;20140;-59
2021/12/31 06:08:57;;;;;;;5.03;1.95;;;;;;;;;;5045832;28;20056;-58
2021/12/31 06:11:23;;;;;;;11.40;3.27;;;;;;;;;;5042821;28;20049;-60
2021/12/31 06:14:00;;;;;;;8.60;3.55;;;;;;;;;;5045638;28;20121;-59
2021/12/31 06:16:26;;;;;;;5.50;1.50;;;;;;;;;;5041102;28;20136;-59
2021/12/31 06:18:53;;;;;;;4.70;1.63;;;;;;;;;;5049216;28;20053;-59
2021/12/31 06:21:19;;;;;;;5.90;1.77;;;;;;;;;;5036410;28;20061;-58
2021/12/31 06:23:45;;;;;;;5.85;1.70;;;;;;;;;;5045472;28;20084;-61
2021/12/31 06:26:14;;;;;;;5.55;1.50;;;;;;;;;;5038930;28;20474;-58
2021/12/31 06:28:40;;;;;;;3.60;1.40;;;;;;;;;;5046351;28;20055;-58
2021/12/31 06:31:07;;;;;;;7.57;1.70;;;;;;;;;;5023903;28;20080;-59
2021/12/31 06:33:33;;;;;;;10.25;1.92;;;;;;;;;;5047456;28;20156;-58
2021/12/31 06:36:00;;;;;;;6.25;1.80;;;;;;;;;;5042090;28;20081;-58
2021/12/31 06:38:26;;;;;;;10.80;1.45;;;;;;;;;;5044686;28;20057;-59
2021/12/31 06:40:55;;;;;;;6.63;1.60;;;;;;;;;;5043163;28;20044;-59
2021/12/31 06:43:23;;;;;;;10.95;1.70;;;;;;;;;;5048314;28;20081;-59
2021/12/31 06:45:50;;;;;;;7.07;1.67;;;;;;;;;;5042586;28;20140;-58
2021/12/31 06:48:16;;;;;;;7.65;1.83;;;;;;;;;;5046462;28;20056;-60
2021/12/31 06:50:43;;;;;;;5.32;1.83;;;;;;;;;;5047055;28;20128;-59
2021/12/31 06:53:09;;;;;;;4.72;1.70;;;;;;;;;;5043759;28;20152;-59
2021/12/31 06:55:36;;;;;;;3.83;1.40;;;;;;;;;;5049889;28;20082;-60
2021/12/31 06:58:02;;;;;;;7.65;2.15;;;;;;;;;;5046577;28;20096;-59
2021/12/31 07:00:30;;;;;;;13.30;3.85;;;;;;;;;;5047916;28;20053;-60
2021/12/31 07:03:06;;;;;;;7.43;2.85;;;;;;;;;;5042608;28;20702;-59
2021/12/31 07:05:33;;;;;;;6.60;2.47;;;;;;;;;;5046748;28;20060;-59
2021/12/31 07:08:00;;;;;;;5.88;1.95;;;;;;;;;;5043558;28;20052;-57
2021/12/31 07:10:28;;;;;;;8.82;1.60;;;;;;;;;;5047189;28;20057;-59
2021/12/31 07:12:58;;;;;;;5.28;1.80;;;;;;;;;;5041755;28;20076;-59
2021/12/31 07:15:25;;;;;;;5.78;1.77;;;;;;;;;;5046655;28;20141;-58
2021/12/31 07:17:53;;;;;;;9.60;1.83;;;;;;;;;;5039717;28;20063;-59
2021/12/31 07:20:20;;;;;;;4.55;1.40;;;;;;;;;;5045871;28;20156;-59
2021/12/31 07:22:47;;;;;;;3.88;1.63;;;;;;;;;;5041749;28;20529;-59
2021/12/31 07:25:13;;;;;;;5.05;1.75;;;;;;;;;;5046446;28;20067;-58
2021/12/31 07:27:40;;;;;;;7.20;2.00;;;;;;;;;;5036212;28;20094;-59
2021/12/31 07:30:08;;;;;;;7.10;1.98;;;;;;;;;;5028024;28;20058;-59
2021/12/31 07:32:35;;;;;;;5.53;2.00;;;;;;;;;;5022965;28;20145;-59
2021/12/31 07:35:04;;;;;;;6.47;1.55;;;;;;;;;;5025493;28;20049;-59
2021/12/31 07:37:30;;;;;;;5.97;1.75;;;;;;;;;;5024893;28;20072;-59
2021/12/31 07:40:01;;;;;;;5.13;1.90;;;;;;;;;;5028922;28;20266;-58
2021/12/31 07:42:28;;;;;;;3.55;1.42;;;;;;;;;;5017246;28;20053;-60
2021/12/31 07:44:54;;;;;;;4.35;1.73;;;;;;;;;;5038605;28;20061;-61
2021/12/31 07:47:20;;;;;;;8.77;1.75;;;;;;;;;;5028463;28;20053;-59
2021/12/31 07:49:47;;;;;;;4.07;2.00;;;;;;;;;;5024555;28;20057;-61
2021/12/31 07:52:15;;;;;;;5.13;1.55;;;;;;;;;;5039051;28;20143;-60
2021/12/31 07:54:42;;;;;;;7.43;2.05;;;;;;;;;;5042267;28;20061;-59
2021/12/31 07:57:08;;;;;;;5.05;1.50;;;;;;;;;;5030126;28;20053;-61
2021/12/31 07:59:35;;;;;;;5.47;1.60;;;;;;;;;;5035029;28;20080;-58
2021/12/31 08:02:02;;;;;;;4.32;1.70;;;;;;;;;;5048808;28;20142;-60
2021/12/31 08:04:28;;;;;;;18.05;1.70;;;;;;;;;;5044255;28;20132;-59
2021/12/31 08:06:55;;;;;;;10.55;2.90;;;;;;;;;;5047769;28;20084;-59
2021/12/31 08:09:24;;;;;;;5.57;2.20;;;;;;;;;;5044926;28;20078;-59
2021/12/31 08:11:53;;;;;;;6.65;1.88;;;;;;;;;;5049096;28;20056;-60
2021/12/31 08:14:20;;;;;;;6.40;1.70;;;;;;;;;;5044586;28;20045;-61
2021/12/31 08:16:47;;;;;;;4.95;1.90;;;;;;;;;;5048875;28;20045;-62
2021/12/31 08:19:13;;;;;;;4.20;1.33;;;;;;;;;;5048580;28;20135;-58
2021/12/31 08:21:40;;;;;;;6.80;1.65;;;;;;;;;;5041699;28;20081;-62
2021/12/31 08:24:06;;;;;;;3.05;1.48;;;;;;;;;;5028934;28;20112;-60
2021/12/31 08:26:35;;;;;;;4.38;1.58;;;;;;;;;;5043372;28;20430;-59
2021/12/31 08:29:01;;;;;;;;;;;;;;;;;;5027796;28;20148;-59
2021/12/31 08:31:28;;;;;;;4.95;1.60;;;;;;;;;;5026487;28;19931;-62
2021/12/31 08:33:54;;;;;;;10.25;1.95;;;;;;;;;;5031442;28;20125;-62
2021/12/31 08:36:21;;;;;;;6.35;1.90;;;;;;;;;;5041229;28;20121;-59
2021/12/31 08:38:47;;;;;;;5.38;1.70;;;;;;;;;;5040389;28;20072;-59
2021/12/31 08:41:14;;;;;;;6.30;1.70;;;;;;;;;;5024502;28;20053;-59
2021/12/31 08:43:42;;;;;;;6.03;1.60;;;;;;;;;;5028225;28;20077;-59
2021/12/31 08:46:08;;;;;;;5.43;1.70;;;;;;;;;;5024069;28;20140;-59
2021/12/31 08:48:35;;;;;;;4.18;1.45;;;;;;;;;;5044264;28;20103;-60
2021/12/31 08:51:01;;;;;;;4.18;1.63;;;;;;;;;;5040847;28;20136;-59
2021/12/31 08:53:28;;;;;;;6.35;1.63;;;;;;;;;;5043211;28;20057;-59
2021/12/31 08:55:54;;;;;;;5.40;1.85;;;;;;;;;;5041529;28;20057;-59
2021/12/31 08:58:21;;;;;;;5.05;1.60;;;;;;;;;;5047439;28;20053;-59
2021/12/31 09:00:49;;;;;;;8.30;1.80;;;;;;;;;;5047614;28;20064;-59
2021/12/31 09:03:15;;;;;;;7.05;1.77;;;;;;;;;;5041086;28;20475;-58
2021/12/31 09:05:42;;;;;;;6.57;1.42;;;;;;;;;;5030803;28;20123;-60
2021/12/31 09:08:08;;;;;;;2.75;1.30;;;;;;;;;;5032763;28;20052;-60
2021/12/31 09:10:35;;;;;;;4.30;1.38;;;;;;;;;;5047474;28;20080;-61
2021/12/31 09:13:02;;;;;;;3.53;1.40;;;;;;;;;;5049766;28;20049;-59
2021/12/31 09:15:28;;;;;;;8.73;2.90;;;;;;;;;;5047659;28;20052;-60
2021/12/31 09:17:56;;;;;;;12.35;4.22;;;;;;;;;;5043459;28;20143;-59
2021/12/31 09:20:23;;;;;;;6.50;1.90;;;;;;;;;;5047075;28;20058;-58
2021/12/31 09:22:49;;;;;;;5.85;1.70;;;;;;;;;;5043982;28;20053;-60
2021/12/31 09:25:16;;;;;;;4.22;1.75;;;;;;;;;;5047656;28;20380;-59
2021/12/31 09:27:43;;;;;;;3.58;1.55;;;;;;;;;;5040057;28;20082;-57
2021/12/31 09:30:12;;;;;;;7.30;1.70;;;;;;;;;;5043921;28;20473;-57
2021/12/31 09:32:38;;;;;;;5.50;2.17;;;;;;;;;;5028676;28;20131;-57
2021/12/31 09:35:07;;;;;;;4.43;1.50;;;;;;;;;;5048021;28;20171;-56
2021/12/31 09:37:33;;;;;;;8.05;1.85;;;;;;;;;;5043121;28;20057;-57
2021/12/31 09:40:00;;;;;;;6.13;1.80;;;;;;;;;;5046733;28;20506;-58
2021/12/31 09:42:26;;;;;;;8.88;1.55;;;;;;;;;;5046924;28;20057;-57
2021/12/31 09:44:53;;;;;;;5.60;1.63;;;;;;;;;;5024892;28;20431;-60
2021/12/31 09:47:20;;;;;;;6.40;1.65;;;;;;;;;;5027233;28;20160;-61
2021/12/31 09:49:48;;;;;;;3.00;1.50;;;;;;;;;;5023636;28;20132;-59
2021/12/31 09:52:19;;;;;;;3.55;1.52;;;;;;;;;;5027284;28;20177;-59
2021/12/31 09:54:46;;;;;;;3.17;1.40;;;;;;;;;;5038393;28;20057;-60
2021/12/31 09:57:13;;;;;;;4.57;1.70;;;;;;;;;;5046929;28;20064;-59
2021/12/31 09:59:41;;;;;;;5.82;1.60;;;;;;;;;;5043974;28;20061;-60
2021/12/31 10:02:09;;;;;;;11.30;1.80;;;;;;;;;;5047834;28;20060;-56
2021/12/31 10:04:50;;;;;;;4.43;1.60;;;;;;;;;;5044047;28;20140;-57
2021/12/31 10:07:20;;;;;;;7.10;1.63;;;;;;;;;;5048638;28;20049;-57
2021/12/31 10:10:02;;;;;;;4.82;1.73;;;;;;;;;;5044338;28;20132;-60
2021/12/31 10:12:43;;;;;;;5.15;1.90;;;;;;;;;;5047294;28;20136;-59
2021/12/31 10:15:09;;;;;;;8.35;2.05;;;;;;;;;;5033067;28;20102;-59
2021/12/31 10:17:36;;;;;;;4.80;1.70;;;;;;;;;;5045815;28;20120;-60
2021/12/31 10:20:03;;;;;;;9.80;1.88;;;;;;;;;;5042601;28;20068;-57
2021/12/31 10:22:31;;;;;;;4.05;1.50;;;;;;;;;;5046214;28;20183;-57
2021/12/31 10:24:58;;;;;;;4.80;1.67;;;;;;;;;;5039158;28;20111;-57
2021/12/31 10:27:25;;;;;;;5.38;1.80;;;;;;;;;;5032947;28;20138;-57
2021/12/31 10:29:52;;;;;;;4.55;1.83;;;;;;;;;;5042689;28;20056;-57
2021/12/31 10:32:19;;;;;;;6.32;1.88;;;;;;;;;;5046585;28;20056;-59
2021/12/31 10:34:45;;;;;;;4.65;1.58;;;;;;;;;;5041906;28;20299;-58
2021/12/31 10:37:15;;;;;;;5.35;1.73;;;;;;;;;;5029155;28;20052;-60
2021/12/31 10:39:43;;;;;;;5.45;1.92;;;;;;;;;;5045620;28;20087;-60
2021/12/31 10:42:10;;;;;;;;;;;;;;;;;;5043008;28;20049;-59
2021/12/31 10:44:43;;;;;;;9.27;2.33;;;;;;;;;;5045188;28;19971;-59
2021/12/31 10:47:12;;;;;;;6.22;2.10;;;;;;;;;;5035830;28;20077;-59
2021/12/31 10:49:54;;;;;;;4.95;2.00;;;;;;;;;;5025421;28;20073;-59
2021/12/31 10:52:23;;;;;;;3.58;1.48;;;;;;;;;;5037619;28;20056;-59
2021/12/31 10:55:01;;;;;;;5.47;1.67;;;;;;;;;;5045269;28;20418;-59
2021/12/31 10:57:35;;;;;;;3.13;1.40;;;;;;;;;;5038096;28;20115;-59
2021/12/31 11:00:04;;;;;;;8.15;2.80;;;;;;;;;;5025559;28;20447;-59
2021/12/31 11:02:32;;;;;;;6.82;2.00;;;;;;;;;;5037575;28;20509;-58
2021/12/31 11:04:59;;;;;;;5.47;1.92;;;;;;;;;;5046112;28;20075;-59
2021/12/31 11:07:26;;;;;;;4.38;1.65;;;;;;;;;;5040961;28;20060;-59
2021/12/31 11:09:55;;;;;;;6.00;1.90;;;;;;;;;;5045907;28;20064;-59
2021/12/31 11:12:21;;;;;;;8.95;1.90;;;;;;;;;;5032840;28;20160;-58
2021/12/31 11:14:48;;;;;;;5.80;1.83;;;;;;;;;;5045452;28;20106;-59
2021/12/31 11:17:15;;;;;;;3.95;1.70;;;;;;;;;;5039910;28;20119;-60
2021/12/31 11:19:44;;;;;;;5.47;1.80;;;;;;;;;;5045472;28;20076;-60
2021/12/31 11:22:11;;;;;;;7.20;2.00;;;;;;;;;;5038092;28;20111;-59
2021/12/31 11:24:38;;;;;;;6.30;2.03;;;;;;;;;;5041605;28;20053;-59
2021/12/31 11:27:24;;;;;;;4.43;1.42;;;;;;;;;;5025293;28;20055;-61
2021/12/31 11:29:52;;;;;;;2.90;1.50;;;;;;;;;;5044642;28;20144;-60
2021/12/31 11:32:19;;;;;;;3.60;1.45;;;;;;;;;;5037954;28;20053;-59
2021/12/31 11:35:05;;;;;;;6.00;2.03;;;;;;;;;;5025267;28;20077;-59
2021/12/31 11:37:45;;;;;;;8.30;2.97;;;;;;;;;;5026894;28;20049;-61
2021/12/31 11:40:27;;;;;;;8.05;3.00;;;;;;;;;;5046849;28;20053;-61
2021/12/31 11:43:12;;;;;;;5.45;1.98;;;;;;;;;;5043859;28;20048;-62
2021/12/31 11:45:43;;;;;;;9.07;2.20;;;;;;;;;;5045984;28;20132;-62
2021/12/31 11:48:28;;;;;;;6.00;2.00;;;;;;;;;;5041761;28;20061;-59
2021/12/31 11:51:05;;;;;;;9.07;2.35;;;;;;;;;;5044820;28;20072;-61
2021/12/31 11:53:31;;;;;;;9.43;2.88;;;;;;;;;;5041754;28;20103;-59
2021/12/31 11:55:58;;;;;;;8.05;2.75;;;;;;;;;;5045020;28;20478;-62
2021/12/31 11:58:37;;;;;;;10.63;3.58;;;;;;;;;;5040881;28;20123;-61
2021/12/31 12:01:19;;;;;;;13.98;4.70;;;;;;;;;;5045023;28;20065;-61
2021/12/31 12:03:47;;;;;;;13.93;5.22;;;;;;;;;;5040392;28;20502;-60
2021/12/31 12:06:28;;;;;;;19.52;5.15;;;;;;;;;;5044524;28;20103;-62
2021/12/31 12:08:55;;;;;;;11.73;3.13;;;;;;;;;;5039754;28;20121;-59
2021/12/31 12:11:37;;;;;;;8.95;2.88;;;;;;;;;;5044347;28;20152;-59
2021/12/31 12:14:18;;;;;;;9.98;2.53;;;;;;;;;;5034935;28;20073;-60
2021/12/31 12:16:57;;;;;;;7.70;2.60;;;;;;;;;;5023691;28;20057;-59
2021/12/31 12:19:45;;;;;;;8.57;2.47;;;;;;;;;;5020697;28;20068;-59
2021/12/31 12:22:23;;;;;;;11.00;3.13;;;;;;;;;;5024335;28;20076;-59
2021/12/31 12:24:50;;;;;;;9.45;2.78;;;;;;;;;;5040099;28;20065;-61
2021/12/31 12:27:17;;;;;;;10.73;2.38;;;;;;;;;;5043746;28;20057;-60
2021/12/31 12:29:44;;;;;;;7.55;2.53;;;;;;;;;;5044313;28;20048;-59
2021/12/31 12:32:12;;;;;;;14.38;5.05;;;;;;;;;;5048131;28;20141;-60
2021/12/31 12:34:39;;;;;;;12.05;3.15;;;;;;;;;;5042298;28;20049;-59
2021/12/31 12:37:06;;;;;;;7.20;2.50;;;;;;;;;;5047279;28;20049;-60
2021/12/31 12:39:32;;;;;;;5.65;2.20;;;;;;;;;;5043425;28;20060;-61
2021/12/31 12:41:59;;;;;;;6.00;2.30;;;;;;;;;;5045942;28;20060;-59
2021/12/31 12:44:25;;;;;;;6.18;2.17;;;;;;;;;;5049086;28;20049;-61
2021/12/31 12:46:54;;;;;;;6.40;2.05;;;;;;;;;;5043879;28;20057;-62
2021/12/31 12:49:24;;;;;;;6.18;2.30;;;;;;;;;;5047505;28;20294;-59
2021/12/31 12:51:52;;;;;;;7.63;2.42;;;;;;;;;;5043807;28;20040;-61
2021/12/31 12:54:21;;;;;;;5.45;2.13;;;;;;;;;;5049329;28;20049;-60
2021/12/31 12:56:48;;;;;;;8.25;2.00;;;;;;;;;;5040784;28;20076;-58
2021/12/31 12:59:20;;;;;;;8.13;2.60;;;;;;;;;;5060919;28;20052;-61
2021/12/31 13:01:46;;;;;;;8.50;2.22;;;;;;;;;;5043716;28;20061;-59
2021/12/31 13:04:14;;;;;;;13.23;2.28;;;;;;;;;;5048104;28;20060;-60
2021/12/31 13:06:55;;;;;;;10.93;2.88;;;;;;;;;;5043357;28;20076;-60
2021/12/31 13:09:29;;;;;;;12.73;3.38;;;;;;;;;;5047642;28;20150;-59
2021/12/31 13:11:59;;;;;;;11.48;4.00;;;;;;;;;;5043981;28;20053;-60
2021/12/31 13:14:29;;;;;;;15.55;4.55;;;;;;;;;;5048952;28;20419;-60
2021/12/31 13:16:57;;;;;;;8.82;2.85;;;;;;;;;;5045263;28;20060;-60
2021/12/31 13:19:28;;;;;;;9.55;3.00;;;;;;;;;;5050143;28;20136;-60
2021/12/31 13:21:57;;;;;;;14.80;2.97;;;;;;;;;;5045289;28;20053;-59
2021/12/31 13:24:26;;;;;;;13.43;2.88;;;;;;;;;;5047599;28;20144;-59
2021/12/31 13:26:54;;;;;;;8.85;2.65;;;;;;;;;;5034061;28;20132;-59
2021/12/31 13:29:30;;;;;;;11.20;2.67;;;;;;;;;;5026408;28;20140;-60
2021/12/31 13:32:04;;;;;;;9.05;2.50;;;;;;;;;;5027497;28;20044;-59
2021/12/31 13:34:38;;;;;;;12.63;3.00;;;;;;;;;;5047618;28;20056;-60
2021/12/31 13:37:05;;;;;;;10.75;2.58;;;;;;;;;;5042761;28;20132;-59
2021/12/31 13:39:38;;;;;;;4.22;1.83;;;;;;;;;;5042301;28;20057;-61
2021/12/31 13:42:06;;;;;;;10.65;2.80;;;;;;;;;;5041679;28;20073;-60
2021/12/31 13:44:33;;;;;;;9.98;2.60;;;;;;;;;;5047223;28;20049;-61
2021/12/31 13:47:08;;;;;;;15.75;5.20;;;;;;;;;;5046453;28;20521;-58
2021/12/31 13:49:38;;;;;;;16.17;7.07;;;;;;;;;;5026255;28;20127;-58
2021/12/31 13:52:22;;;;;;;21.42;13.18;;;;;;;;;;5026601;28;20133;-58
2021/12/31 13:54:51;;;;;;;23.45;11.65;;;;;;;;;;5026321;28;20107;-62
2021/12/31 13:57:24;;;;;;;274.95;157.70;;;;;;;;;;5025755;28;20068;-58
2021/12/31 13:59:51;;;;;;;46.28;26.77;;;;;;;;;;5042478;28;20049;-57
2021/12/31 14:02:21;;;;;;;84.95;53.33;;;;;;;;;;5046502;28;20045;-59
2021/12/31 14:05:02;;;;;;;35.60;19.20;;;;;;;;;;5042117;28;20077;-60
2021/12/31 14:07:32;;;;;;;41.05;22.10;;;;;;;;;;5042931;28;20041;-59
2021/12/31 14:10:01;;;;;;;46.50;25.38;;;;;;;;;;5042333;28;20048;-59
2021/12/31 14:12:30;;;;;;;75.05;43.05;;;;;;;;;;5046219;28;20138;-58
2021/12/31 14:14:56;;;;;;;21.08;10.10;;;;;;;;;;5038864;28;20061;-60
2021/12/31 14:17:24;;;;;;;20.20;10.88;;;;;;;;;;5046251;28;20079;-60
2021/12/31 14:19:51;;;;;;;18.30;9.15;;;;;;;;;;5041342;28;20084;-58
2021/12/31 14:22:17;;;;;;;6.97;3.40;;;;;;;;;;5046731;28;20164;-61
2021/12/31 14:24:44;;;;;;;12.20;5.45;;;;;;;;;;5043256;28;20049;-61
2021/12/31 14:27:11;;;;;;;16.08;6.57;;;;;;;;;;5045567;28;20142;-58
2021/12/31 14:29:39;;;;;;;15.27;5.90;;;;;;;;;;5040916;28;20122;-58
2021/12/31 14:32:07;;;;;;;19.98;10.07;;;;;;;;;;5044701;28;20057;-60
2021/12/31 14:34:34;;;;;;;11.77;4.70;;;;;;;;;;5042734;28;20299;-59
2021/12/31 14:37:04;;;;;;;20.65;8.73;;;;;;;;;;5045089;28;20049;-60
2021/12/31 14:39:31;;;;;;;16.63;6.53;;;;;;;;;;5041542;28;20053;-60
2021/12/31 14:41:58;;;;;;;17.23;5.97;;;;;;;;;;5045807;28;20049;-60
2021/12/31 14:44:26;;;;;;;19.33;6.78;;;;;;;;;;5041936;28;20045;-60
2021/12/31 14:46:53;;;;;;;14.45;5.25;;;;;;;;;;5045587;28;20098;-58
2021/12/31 14:49:21;;;;;;;15.73;5.85;;;;;;;;;;5046376;28;20449;-58
2021/12/31 14:51:47;;;;;;;16.13;6.10;;;;;;;;;;5043049;28;20140;-58